Time;durP1;ratioP1;P1;durP2;ratioP2;P2;SDS_P1;SDS_P2;PMS_P1;PMS_P2;Temp;Humidity;BMP_temperature;BMP_pressure;BME280_temperature;BME280_humidity;BME280_pressure;Samples;Min_cycle;Max_cycle;Signal;HPM_P1;HPM_P2
2024/03/29 00:01:09;;;;;;;;;;;;;;;;;;5031117;28;20450;-65
2024/03/29 00:03:35;;;;;;;;;;;;;;;;;;5030952;28;19921;-65
2024/03/29 00:06:01;;;;;;;;;;;;;;;;;;5031903;28;20004;-65
2024/03/29 00:08:27;;;;;;;;;;;;;;;;;;5031850;28;20324;-65
2024/03/29 00:10:53;;;;;;;;;;;;;;;;;;5030516;28;19925;-65
2024/03/29 00:13:19;;;;;;;;;;;;;;;;;;5032521;28;20011;-65
2024/03/29 00:15:44;;;;;;;;;;;;;;;;;;5024913;28;19987;-65
2024/03/29 00:18:10;;;;;;;;;;;;;;;;;;5032061;28;19932;-65
2024/03/29 00:20:36;;;;;;;;;;;;;;;;;;5029833;28;19947;-63
2024/03/29 00:23:02;;;;;;;;;;;;;;;;;;5031941;28;19928;-63
2024/03/29 00:25:28;;;;;;;;;;;;;;;;;;5037427;28;19925;-64
2024/03/29 00:27:55;;;;;;;;;;;;;;;;;;5030792;28;19925;-64
2024/03/29 00:30:21;;;;;;;;;;;;;;;;;;5024021;28;19921;-64
2024/03/29 00:32:46;;;;;;;;;;;;;;;;;;5029224;28;20440;-64
2024/03/29 00:35:14;;;;;;;;;;;;;;;;;;5029816;28;19932;-64
2024/03/29 00:37:40;;;;;;;;;;;;;;;;;;5025367;28;19965;-64
2024/03/29 00:40:06;;;;;;;;;;;;;;;;;;5010947;28;19961;-64
2024/03/29 00:42:32;;;;;;;;;;;;;;;;;;5011109;28;19926;-64
2024/03/29 00:44:57;;;;;;;;;;;;;;;;;;5017832;28;20412;-64
2024/03/29 00:47:23;;;;;;;;;;;;;;;;;;5012379;28;19971;-64
2024/03/29 00:49:49;;;;;;;;;;;;;;;;;;5024588;28;19928;-64
2024/03/29 00:52:16;;;;;;;;;;;;;;;;;;5026076;28;20475;-64
2024/03/29 00:54:42;;;;;;;;;;;;;;;;;;5023235;28;20020;-64
2024/03/29 00:57:12;;;;;;;;;;;;;;;;;;5028821;28;20011;-64
2024/03/29 00:59:38;;;;;;;;;;;;;;;;;;5013322;28;19921;-64
2024/03/29 01:02:04;;;;;;;;;;;;;;;;;;5021549;28;19925;-64
2024/03/29 01:04:30;;;;;;;;;;;;;;;;;;5016495;28;20430;-64
2024/03/29 01:06:56;;;;;;;;;;;;;;;;;;5030309;28;19925;-64
2024/03/29 01:09:22;;;;;;;;;;;;;;;;;;5026932;28;20344;-64
2024/03/29 01:11:48;;;;;;;;;;;;;;;;;;5026365;28;19929;-64
2024/03/29 01:14:13;;;;;;;;;;;;;;;;;;5011426;28;19936;-64
2024/03/29 01:16:39;;;;;;;;;;;;;;;;;;5025904;28;19929;-64
2024/03/29 01:19:05;;;;;;;;;;;;;;;;;;5026623;28;20331;-64
2024/03/29 01:21:31;;;;;;;;;;;;;;;;;;5027804;28;19929;-64
2024/03/29 01:23:57;;;;;;;;;;;;;;;;;;5030678;28;19925;-64
2024/03/29 01:26:23;;;;;;;;;;;;;;;;;;5037138;28;19936;-64
2024/03/29 01:28:49;;;;;;;;;;;;;;;;;;5036786;28;20388;-64
2024/03/29 01:31:15;;;;;;;;;;;;;;;;;;5029113;28;19921;-64
2024/03/29 01:33:41;;;;;;;;;;;;;;;;;;5037829;28;19971;-64
2024/03/29 01:36:07;;;;;;;;;;;;;;;;;;5028930;28;19929;-64
2024/03/29 01:38:33;;;;;;;;;;;;;;;;;;5041533;28;19929;-64
2024/03/29 01:40:59;;;;;;;;;;;;;;;;;;5032380;28;19921;-64
2024/03/29 01:43:25;;;;;;;;;;;;;;;;;;5029138;28;20397;-64
2024/03/29 01:45:50;;;;;;;;;;;;;;;;;;5035196;28;19921;-64
2024/03/29 01:48:16;;;;;;;;;;;;;;;;;;5021510;28;20011;-64
2024/03/29 01:50:42;;;;;;;;;;;;;;;;;;5028977;28;19921;-64
2024/03/29 01:53:08;;;;;;;;;;;;;;;;;;5019549;28;19925;-64
2024/03/29 01:55:34;;;;;;;;;;;;;;;;;;5028324;28;19929;-64
2024/03/29 01:58:01;;;;;;;;;;;;;;;;;;5018614;28;19929;-64
2024/03/29 02:00:27;;;;;;;;;;;;;;;;;;5041845;28;19971;-64
2024/03/29 02:02:53;;;;;;;;;;;;;;;;;;5047081;28;19930;-65
2024/03/29 02:05:19;;;;;;;;;;;;;;;;;;5046366;28;19925;-64
2024/03/29 02:07:47;;;;;;;;;;;;;;;;;;5013785;28;19921;-64
2024/03/29 02:10:13;;;;;;;;;;;;;;;;;;5011583;28;19972;-64
2024/03/29 02:12:38;;;;;;;;;;;;;;;;;;5014591;28;19943;-65
2024/03/29 02:15:05;;;;;;;;;;;;;;;;;;5042357;28;19928;-64
2024/03/29 02:17:31;;;;;;;;;;;;;;;;;;5036891;28;19921;-64
2024/03/29 02:19:57;;;;;;;;;;;;;;;;;;5052608;28;20564;-63
2024/03/29 02:22:23;;;;;;;;;;;;;;;;;;5036153;28;19929;-64
2024/03/29 02:24:49;;;;;;;;;;;;;;;;;;5031557;28;19990;-64
2024/03/29 02:27:15;;;;;;;;;;;;;;;;;;5026045;28;19929;-64
2024/03/29 02:29:40;;;;;;;;;;;;;;;;;;5034886;28;20346;-64
2024/03/29 02:32:06;;;;;;;;;;;;;;;;;;5042168;28;19947;-64
2024/03/29 02:34:32;;;;;;;;;;;;;;;;;;5043929;28;19932;-64
2024/03/29 02:36:59;;;;;;;;;;;;;;;;;;5052011;28;20008;-64
2024/03/29 02:39:25;;;;;;;;;;;;;;;;;;5053773;28;20332;-64
2024/03/29 02:41:51;;;;;;;;;;;;;;;;;;5050966;28;19921;-64
2024/03/29 02:44:17;;;;;;;;;;;;;;;;;;5025773;28;19979;-65
2024/03/29 02:46:43;;;;;;;;;;;;;;;;;;5041279;28;19924;-64
2024/03/29 02:49:12;;;;;;;;;;;;;;;;;;5031858;28;20551;-64
2024/03/29 02:51:38;;;;;;;;;;;;;;;;;;5039269;28;19967;-64
2024/03/29 02:54:04;;;;;;;;;;;;;;;;;;5039543;28;19972;-64
2024/03/29 02:56:30;;;;;;;;;;;;;;;;;;5033819;28;20019;-64
2024/03/29 02:58:56;;;;;;;;;;;;;;;;;;5020743;28;19925;-64
2024/03/29 03:01:22;;;;;;;;;;;;;;;;;;5041872;28;19947;-63
2024/03/29 03:03:48;;;;;;;;;;;;;;;;;;5045830;28;19978;-64
2024/03/29 03:06:14;;;;;;;;;;;;;;;;;;5042128;28;20358;-66
2024/03/29 03:11:24;;;;;;;;;;;;;;;;;;5033923;28;20396;-64
2024/03/29 03:13:50;;;;;;;;;;;;;;;;;;5030976;28;19929;-64
2024/03/29 03:16:16;;;;;;;;;;;;;;;;;;5034316;28;20434;-64
2024/03/29 03:18:42;;;;;;;;;;;;;;;;;;5049401;28;20017;-64
2024/03/29 03:21:08;;;;;;;;;;;;;;;;;;5028886;28;19924;-64
2024/03/29 03:23:34;;;;;;;;;;;;;;;;;;5040169;28;19925;-64
2024/03/29 03:26:00;;;;;;;;;;;;;;;;;;5044085;28;19932;-64
2024/03/29 03:28:26;;;;;;;;;;;;;;;;;;5043061;28;20563;-64
2024/03/29 03:30:52;;;;;;;;;;;;;;;;;;5026147;28;20250;-64
2024/03/29 03:33:18;;;;;;;;;;;;;;;;;;5006787;28;19932;-64
2024/03/29 03:35:44;;;;;;;;;;;;;;;;;;5032917;28;19929;-64
2024/03/29 03:38:10;;;;;;;;;;;;;;;;;;5041383;28;19921;-64
2024/03/29 03:40:35;;;;;;;;;;;;;;;;;;5040327;28;19928;-64
2024/03/29 03:43:01;;;;;;;;;;;;;;;;;;5053551;28;19921;-64
2024/03/29 03:45:27;;;;;;;;;;;;;;;;;;5029301;28;19964;-64
2024/03/29 03:47:53;;;;;;;;;;;;;;;;;;5016468;28;19972;-64
2024/03/29 03:50:19;;;;;;;;;;;;;;;;;;5022689;28;20273;-64
2024/03/29 03:52:45;;;;;;;;;;;;;;;;;;5051809;28;19927;-64
2024/03/29 03:55:11;;;;;;;;;;;;;;;;;;5043581;28;19925;-64
2024/03/29 03:57:37;;;;;;;;;;;;;;;;;;5045796;28;19925;-64
2024/03/29 04:00:03;;;;;;;;;;;;;;;;;;5025048;28;20349;-64
2024/03/29 04:02:29;;;;;;;;;;;;;;;;;;5030500;28;19921;-64
2024/03/29 04:04:55;;;;;;;;;;;;;;;;;;5014620;28;19921;-66
2024/03/29 04:07:21;;;;;;;;;;;;;;;;;;5042877;28;19930;-64
2024/03/29 04:09:47;;;;;;;;;;;;;;;;;;5044697;28;19976;-64
2024/03/29 04:12:13;;;;;;;;;;;;;;;;;;5048890;28;20000;-64
2024/03/29 04:14:38;;;;;;;;;;;;;;;;;;5028993;28;20008;-63
2024/03/29 04:17:05;;;;;;;;;;;;;;;;;;5031821;28;19999;-64
2024/03/29 04:19:31;;;;;;;;;;;;;;;;;;5014376;28;19932;-64
2024/03/29 04:21:57;;;;;;;;;;;;;;;;;;5031257;28;19927;-64
2024/03/29 04:24:23;;;;;;;;;;;;;;;;;;5045238;28;19921;-65
2024/03/29 04:26:49;;;;;;;;;;;;;;;;;;5038171;28;20369;-65
2024/03/29 04:29:15;;;;;;;;;;;;;;;;;;5026701;28;19931;-65
2024/03/29 04:31:41;;;;;;;;;;;;;;;;;;5030285;28;19921;-64
2024/03/29 04:34:07;;;;;;;;;;;;;;;;;;5029044;28;19987;-64
2024/03/29 04:36:33;;;;;;;;;;;;;;;;;;5031020;28;19979;-64
2024/03/29 04:38:59;;;;;;;;;;;;;;;;;;5023510;28;20514;-64
2024/03/29 04:41:25;;;;;;;;;;;;;;;;;;5050527;28;19928;-64
2024/03/29 04:43:51;;;;;;;;;;;;;;;;;;5040743;28;19925;-64
2024/03/29 04:46:17;;;;;;;;;;;;;;;;;;5035975;28;19929;-64
2024/03/29 04:48:43;;;;;;;;;;;;;;;;;;5022261;28;20000;-64
2024/03/29 04:51:09;;;;;;;;;;;;;;;;;;5030332;28;19921;-65
2024/03/29 04:53:34;;;;;;;;;;;;;;;;;;5018997;28;20393;-65
2024/03/29 04:56:00;;;;;;;;;;;;;;;;;;5023197;28;19936;-64
2024/03/29 04:58:26;;;;;;;;;;;;;;;;;;5018747;28;20047;-64
2024/03/29 05:00:52;;;;;;;;;;;;;;;;;;5025134;28;20020;-64
2024/03/29 05:03:18;;;;;;;;;;;;;;;;;;5032173;28;19925;-64
2024/03/29 05:05:44;;;;;;;;;;;;;;;;;;5028522;28;19960;-64
2024/03/29 05:08:10;;;;;;;;;;;;;;;;;;5029894;28;19928;-64
2024/03/29 05:10:36;;;;;;;;;;;;;;;;;;5039058;28;19920;-64
2024/03/29 05:13:02;;;;;;;;;;;;;;;;;;5049719;28;19924;-64
2024/03/29 05:15:28;;;;;;;;;;;;;;;;;;5037352;28;19925;-64
2024/03/29 05:17:54;;;;;;;;;;;;;;;;;;5013353;28;19921;-64
2024/03/29 05:20:20;;;;;;;;;;;;;;;;;;5028875;28;20008;-64
2024/03/29 05:22:46;;;;;;;;;;;;;;;;;;5013321;28;20037;-64
2024/03/29 05:25:12;;;;;;;;;;;;;;;;;;5031337;28;19952;-65
2024/03/29 05:27:38;;;;;;;;;;;;;;;;;;5031889;28;19971;-65
2024/03/29 05:30:04;;;;;;;;;;;;;;;;;;5020930;28;19936;-65
2024/03/29 05:32:30;;;;;;;;;;;;;;;;;;5030107;28;19922;-63
2024/03/29 05:34:55;;;;;;;;;;;;;;;;;;5027522;28;19929;-63
2024/03/29 05:37:22;;;;;;;;;;;;;;;;;;5026614;28;19970;-64
2024/03/29 05:39:48;;;;;;;;;;;;;;;;;;5013619;28;19921;-65
2024/03/29 05:42:14;;;;;;;;;;;;;;;;;;5026649;28;19933;-65
2024/03/29 05:44:40;;;;;;;;;;;;;;;;;;5027611;28;20300;-64
2024/03/29 05:47:06;;;;;;;;;;;;;;;;;;5029571;28;19925;-66
2024/03/29 05:49:33;;;;;;;;;;;;;;;;;;5030944;28;19995;-64
2024/03/29 05:51:59;;;;;;;;;;;;;;;;;;5024660;28;20674;-65
2024/03/29 05:54:25;;;;;;;;;;;;;;;;;;5025716;28;19987;-65
2024/03/29 05:56:50;;;;;;;;;;;;;;;;;;5030207;28;19933;-64
2024/03/29 05:59:16;;;;;;;;;;;;;;;;;;5023869;28;19949;-65
2024/03/29 06:01:42;;;;;;;;;;;;;;;;;;5025391;28;20784;-64
2024/03/29 06:04:15;;;;;;;;;;;;;;;;;;5012682;28;19925;-63
2024/03/29 06:06:41;;;;;;;;;;;;;;;;;;5030433;28;20407;-64
2024/03/29 06:09:07;;;;;;;;;;;;;;;;;;5017804;28;20011;-64
2024/03/29 06:11:33;;;;;;;;;;;;;;;;;;5030585;28;19963;-64
2024/03/29 06:19:10;;;;;;;;;;;;;;;;;;5028439;28;20380;-64
2024/03/29 06:21:39;;;;;;;;;;;;;;;;;;5026283;28;19921;-64
2024/03/29 06:24:05;;;;;;;;;;;;;;;;;;5030907;28;19974;-64
2024/03/29 06:26:31;;;;;;;;;;;;;;;;;;5029369;28;19937;-64
2024/03/29 06:28:57;;;;;;;;;;;;;;;;;;5019872;28;20284;-64
2024/03/29 06:31:23;;;;;;;;;;;;;;;;;;5027275;28;19921;-64
2024/03/29 06:33:49;;;;;;;;;;;;;;;;;;5029787;28;19928;-63
2024/03/29 06:36:15;;;;;;;;;;;;;;;;;;5028243;28;19929;-65
2024/03/29 06:38:40;;;;;;;;;;;;;;;;;;5029572;28;20017;-63
2024/03/29 06:41:06;;;;;;;;;;;;;;;;;;5031093;28;20403;-63
2024/03/29 06:43:32;;;;;;;;;;;;;;;;;;5033221;28;19928;-64
2024/03/29 06:45:59;;;;;;;;;;;;;;;;;;5028139;28;19925;-64
2024/03/29 06:48:25;;;;;;;;;;;;;;;;;;5029378;28;19921;-64
2024/03/29 06:50:51;;;;;;;;;;;;;;;;;;5033220;28;20482;-64
2024/03/29 06:53:17;;;;;;;;;;;;;;;;;;5032757;28;19932;-64
2024/03/29 06:55:43;;;;;;;;;;;;;;;;;;5031751;28;20376;-64
2024/03/29 06:58:10;;;;;;;;;;;;;;;;;;5030388;28;19921;-64
2024/03/29 07:00:36;;;;;;;;;;;;;;;;;;5028873;28;19929;-64
2024/03/29 07:03:05;;;;;;;;;;;;;;;;;;5029716;28;19928;-64
2024/03/29 07:05:30;;;;;;;;;;;;;;;;;;5027971;28;19921;-63
2024/03/29 07:07:59;;;;;;;;;;;;;;;;;;5033695;28;20015;-64
2024/03/29 07:10:25;;;;;;;;;;;;;;;;;;5032532;28;19928;-63
2024/03/29 07:12:51;;;;;;;;;;;;;;;;;;5033507;28;20379;-64
2024/03/29 07:15:17;;;;;;;;;;;;;;;;;;5028122;28;19932;-64
2024/03/29 07:17:43;;;;;;;;;;;;;;;;;;5015635;28;19928;-64
2024/03/29 07:20:09;;;;;;;;;;;;;;;;;;5032224;28;19921;-64
2024/03/29 07:22:35;;;;;;;;;;;;;;;;;;5031023;28;20438;-63
2024/03/29 07:25:01;;;;;;;;;;;;;;;;;;5032048;28;20654;-64
2024/03/29 07:27:29;;;;;;;;;;;;;;;;;;5033583;28;20364;-64
2024/03/29 07:29:55;;;;;;;;;;;;;;;;;;5017767;28;20423;-64
2024/03/29 07:32:21;;;;;;;;;;;;;;;;;;5035326;28;19972;-64
2024/03/29 07:34:47;;;;;;;;;;;;;;;;;;5035136;28;20020;-64
2024/03/29 07:37:15;;;;;;;;;;;;;;;;;;5023855;28;20048;-64
2024/03/29 07:42:17;;;;;;;;;;;;;;;;;;5049225;28;19936;-65
2024/03/29 07:44:43;;;;;;;;;;;;;;;;;;5047439;28;19924;-65
2024/03/29 07:47:09;;;;;;;;;;;;;;;;;;5052817;28;19924;-65
2024/03/29 07:49:35;;;;;;;;;;;;;;;;;;5052175;28;19947;-68
2024/03/29 07:52:05;;;;;;;;;;;;;;;;;;5052668;28;20413;-68
2024/03/29 07:54:31;;;;;;;;;;;;;;;;;;5044143;28;19929;-67
2024/03/29 07:56:57;;;;;;;;;;;;;;;;;;5048008;28;19943;-67
2024/03/29 07:59:23;;;;;;;;;;;;;;;;;;5047401;28;19924;-67
2024/03/29 08:01:48;;;;;;;;;;;;;;;;;;5033770;28;19928;-68
2024/03/29 08:04:14;;;;;;;;;;;;;;;;;;5046913;28;19931;-67
2024/03/29 08:06:40;;;;;;;;;;;;;;;;;;5048080;28;19928;-67
2024/03/29 08:09:06;;;;;;;;;;;;;;;;;;5048277;28;19967;-67
2024/03/29 08:11:32;;;;;;;;;;;;;;;;;;5048719;28;20279;-68
2024/03/29 08:13:58;;;;;;;;;;;;;;;;;;5048946;28;20328;-67
2024/03/29 08:16:24;;;;;;;;;;;;;;;;;;5050956;28;19921;-68
2024/03/29 08:18:50;;;;;;;;;;;;;;;;;;5052652;28;19937;-67
2024/03/29 08:21:16;;;;;;;;;;;;;;;;;;5033910;28;20523;-67
2024/03/29 08:23:46;;;;;;;;;;;;;;;;;;5032421;28;20365;-68
2024/03/29 08:26:12;;;;;;;;;;;;;;;;;;5049855;28;20615;-67
2024/03/29 08:28:38;;;;;;;;;;;;;;;;;;5052227;28;19970;-67
2024/03/29 08:31:03;;;;;;;;;;;;;;;;;;5050416;28;19931;-67
2024/03/29 08:33:31;;;;;;;;;;;;;;;;;;5031344;28;19957;-67
2024/03/29 08:35:57;;;;;;;;;;;;;;;;;;5043190;28;20007;-66
2024/03/29 08:38:23;;;;;;;;;;;;;;;;;;5049850;28;20047;-66
2024/03/29 08:40:49;;;;;;;;;;;;;;;;;;5051643;28;20339;-66
2024/03/29 08:43:18;;;;;;;;;;;;;;;;;;5048615;28;19928;-66
2024/03/29 08:45:44;;;;;;;;;;;;;;;;;;5047768;28;19931;-66
2024/03/29 08:48:10;;;;;;;;;;;;;;;;;;5063894;28;20012;-66
2024/03/29 08:50:35;;;;;;;;;;;;;;;;;;5045798;28;19920;-66
2024/03/29 08:53:03;;;;;;;;;;;;;;;;;;5039586;28;19925;-66
2024/03/29 08:55:28;;;;;;;;;;;;;;;;;;5045997;28;19979;-66
2024/03/29 08:57:54;;;;;;;;;;;;;;;;;;5048817;28;19946;-66
2024/03/29 09:00:20;;;;;;;;;;;;;;;;;;5046432;28;19924;-67
2024/03/29 09:02:47;;;;;;;;;;;;;;;;;;5044357;28;19931;-66
2024/03/29 09:05:12;;;;;;;;;;;;;;;;;;5047041;28;19925;-66
2024/03/29 09:07:40;;;;;;;;;;;;;;;;;;5043719;28;19972;-66
2024/03/29 09:10:06;;;;;;;;;;;;;;;;;;5049262;28;19990;-66
2024/03/29 09:12:32;;;;;;;;;;;;;;;;;;5051706;28;19956;-66
2024/03/29 09:14:58;;;;;;;;;;;;;;;;;;5050056;28;20375;-66
2024/03/29 09:17:25;;;;;;;;;;;;;;;;;;5050358;28;19924;-66
2024/03/29 09:19:54;;;;;;;;;;;;;;;;;;5040545;28;20028;-66
2024/03/29 09:22:20;;;;;;;;;;;;;;;;;;5044459;28;19928;-66
2024/03/29 09:24:46;;;;;;;;;;;;;;;;;;5045709;28;19920;-66
2024/03/29 09:27:12;;;;;;;;;;;;;;;;;;5045074;28;19928;-66
2024/03/29 09:29:38;;;;;;;;;;;;;;;;;;5051492;28;19921;-66
2024/03/29 09:32:04;;;;;;;;;;;;;;;;;;5048526;28;19921;-66
2024/03/29 09:34:32;;;;;;;;;;;;;;;;;;5049838;28;19928;-66
2024/03/29 09:36:58;;;;;;;;;;;;;;;;;;5048656;28;19925;-66
2024/03/29 09:39:24;;;;;;;;;;;;;;;;;;5050273;28;20364;-66
2024/03/29 09:41:50;;;;;;;;;;;;;;;;;;5050748;28;19928;-66
2024/03/29 09:44:17;;;;;;;;;;;;;;;;;;5050944;28;19925;-66
2024/03/29 09:46:43;;;;;;;;;;;;;;;;;;5047926;28;20043;-66
2024/03/29 09:49:11;;;;;;;;;;;;;;;;;;5040951;28;20019;-66
2024/03/29 09:51:37;;;;;;;;;;;;;;;;;;5050295;28;19964;-66
2024/03/29 09:54:04;;;;;;;;;;;;;;;;;;5051262;28;19932;-66
2024/03/29 09:56:30;;;;;;;;;;;;;;;;;;5050519;28;19971;-66
2024/03/29 09:58:57;;;;;;;;;;;;;;;;;;5050771;28;19971;-66
2024/03/29 10:01:23;;;;;;;;;;;;;;;;;;5039642;28;19933;-66
2024/03/29 10:03:49;;;;;;;;;;;;;;;;;;5046656;28;19920;-67
2024/03/29 10:06:17;;;;;;;;;;;;;;;;;;5045130;28;20518;-66
2024/03/29 10:08:43;;;;;;;;;;;;;;;;;;5046534;28;19925;-66
2024/03/29 10:11:09;;;;;;;;;;;;;;;;;;5050917;28;20268;-67
2024/03/29 10:13:35;;;;;;;;;;;;;;;;;;5050971;28;19921;-66
2024/03/29 10:16:02;;;;;;;;;;;;;;;;;;5049376;28;19929;-66
2024/03/29 10:18:30;;;;;;;;;;;;;;;;;;5052715;28;20384;-67
2024/03/29 10:20:56;;;;;;;;;;;;;;;;;;5050649;28;19931;-66
2024/03/29 10:23:24;;;;;;;;;;;;;;;;;;5054034;28;20299;-66
2024/03/29 10:25:50;;;;;;;;;;;;;;;;;;5051419;28;19921;-66
2024/03/29 10:28:16;;;;;;;;;;;;;;;;;;5052935;28;19921;-66
2024/03/29 10:30:42;;;;;;;;;;;;;;;;;;5049399;28;19924;-67
2024/03/29 10:33:07;;;;;;;;;;;;;;;;;;5050876;28;20020;-67
2024/03/29 10:35:33;;;;;;;;;;;;;;;;;;5053087;28;19986;-66
2024/03/29 10:37:59;;;;;;;;;;;;;;;;;;5052330;28;20344;-66
2024/03/29 10:40:25;;;;;;;;;;;;;;;;;;5034614;28;19924;-66
2024/03/29 10:42:51;;;;;;;;;;;;;;;;;;5032819;28;19933;-66
2024/03/29 10:45:17;;;;;;;;;;;;;;;;;;5047588;28;19921;-66
2024/03/29 10:47:44;;;;;;;;;;;;;;;;;;5039271;28;19959;-66
2024/03/29 10:50:10;;;;;;;;;;;;;;;;;;5035198;28;19932;-66
2024/03/29 10:52:36;;;;;;;;;;;;;;;;;;5052982;28;19921;-66
2024/03/29 10:55:01;;;;;;;;;;;;;;;;;;5036763;28;19928;-66
2024/03/29 10:57:27;;;;;;;;;;;;;;;;;;5053184;28;19975;-66
2024/03/29 10:59:53;;;;;;;;;;;;;;;;;;5052854;28;19978;-67
2024/03/29 11:02:19;;;;;;;;;;;;;;;;;;5034560;28;20003;-67
2024/03/29 11:04:45;;;;;;;;;;;;;;;;;;5048679;28;19921;-67
2024/03/29 11:07:11;;;;;;;;;;;;;;;;;;5046264;28;19932;-67
2024/03/29 11:09:37;;;;;;;;;;;;;;;;;;5038860;28;19924;-67
2024/03/29 11:12:03;;;;;;;;;;;;;;;;;;5043254;28;19928;-67
2024/03/29 11:14:29;;;;;;;;;;;;;;;;;;5047305;28;20443;-67
2024/03/29 11:16:58;;;;;;;;;;;;;;;;;;5047870;28;20015;-67
2024/03/29 11:19:24;;;;;;;;;;;;;;;;;;5049562;28;19929;-67
2024/03/29 11:21:50;;;;;;;;;;;;;;;;;;5050847;28;19964;-67
2024/03/29 11:24:16;;;;;;;;;;;;;;;;;;5048954;28;19927;-67
2024/03/29 11:26:42;;;;;;;;;;;;;;;;;;5051913;28;20424;-67
2024/03/29 11:29:08;;;;;;;;;;;;;;;;;;5052644;28;19979;-67
2024/03/29 11:31:34;;;;;;;;;;;;;;;;;;5064881;28;19968;-67
2024/03/29 11:34:00;;;;;;;;;;;;;;;;;;5049394;28;19995;-67
2024/03/29 11:36:27;;;;;;;;;;;;;;;;;;5053277;28;19967;-67
2024/03/29 11:38:53;;;;;;;;;;;;;;;;;;5044231;28;20015;-67
2024/03/29 11:41:19;;;;;;;;;;;;;;;;;;5050293;28;20430;-67
2024/03/29 11:43:45;;;;;;;;;;;;;;;;;;5068653;28;19929;-67
2024/03/29 11:46:11;;;;;;;;;;;;;;;;;;5052375;28;19944;-67
2024/03/29 11:48:37;;;;;;;;;;;;;;;;;;5052332;28;19921;-67
2024/03/29 11:51:03;;;;;;;;;;;;;;;;;;5050554;28;20007;-67
2024/03/29 11:53:29;;;;;;;;;;;;;;;;;;5049580;28;20328;-67
2024/03/29 11:55:55;;;;;;;;;;;;;;;;;;5048971;28;20260;-67
2024/03/29 11:58:22;;;;;;;;;;;;;;;;;;5049772;28;19936;-67
2024/03/29 12:00:48;;;;;;;;;;;;;;;;;;5051317;28;19929;-67
2024/03/29 12:03:14;;;;;;;;;;;;;;;;;;5052770;28;19925;-68
2024/03/29 12:05:40;;;;;;;;;;;;;;;;;;5053165;28;19928;-67
2024/03/29 12:08:06;;;;;;;;;;;;;;;;;;5050180;28;19921;-67
2024/03/29 12:10:32;;;;;;;;;;;;;;;;;;5037904;28;19929;-68
2024/03/29 12:12:58;;;;;;;;;;;;;;;;;;5032998;28;19925;-67
2024/03/29 12:15:24;;;;;;;;;;;;;;;;;;5050748;28;19931;-68
2024/03/29 12:17:50;;;;;;;;;;;;;;;;;;5052764;28;19925;-68
2024/03/29 12:20:17;;;;;;;;;;;;;;;;;;5052868;28;19955;-67
2024/03/29 12:22:42;;;;;;;;;;;;;;;;;;5052668;28;20284;-69
2024/03/29 12:25:08;;;;;;;;;;;;;;;;;;5048201;28;19921;-67
2024/03/29 12:27:34;;;;;;;;;;;;;;;;;;5052279;28;19931;-67
2024/03/29 12:30:00;;;;;;;;;;;;;;;;;;5052550;28;19925;-67
2024/03/29 12:32:27;;;;;;;;;;;;;;;;;;5050879;28;20012;-67
2024/03/29 12:34:53;;;;;;;;;;;;;;;;;;5052215;28;19970;-67
2024/03/29 12:37:19;;;;;;;;;;;;;;;;;;5052783;28;20019;-67
2024/03/29 12:39:46;;;;;;;;;;;;;;;;;;5049450;28;19927;-67
2024/03/29 12:42:12;;;;;;;;;;;;;;;;;;5050335;28;19981;-67
2024/03/29 12:44:38;;;;;;;;;;;;;;;;;;5052090;28;19925;-67
2024/03/29 12:47:04;;;;;;;;;;;;;;;;;;5052146;28;19979;-67
2024/03/29 12:49:30;;;;;;;;;;;;;;;;;;5050557;28;19982;-67
2024/03/29 12:51:56;;;;;;;;;;;;;;;;;;5052276;28;20007;-67
2024/03/29 12:54:23;;;;;;;;;;;;;;;;;;5052009;28;20012;-67
2024/03/29 12:56:49;;;;;;;;;;;;;;;;;;5048339;28;20023;-67
2024/03/29 12:59:15;;;;;;;;;;;;;;;;;;5051543;28;20031;-67
2024/03/29 13:01:41;;;;;;;;;;;;;;;;;;5050123;28;19921;-67
2024/03/29 13:04:07;;;;;;;;;;;;;;;;;;5051708;28;19925;-67
2024/03/29 13:06:33;;;;;;;;;;;;;;;;;;5052119;28;19929;-67
2024/03/29 13:08:59;;;;;;;;;;;;;;;;;;5064656;28;19940;-67
2024/03/29 13:11:25;;;;;;;;;;;;;;;;;;5051971;28;19943;-67
2024/03/29 13:13:51;;;;;;;;;;;;;;;;;;5050331;28;20466;-67
2024/03/29 13:16:17;;;;;;;;;;;;;;;;;;5046206;28;20034;-67
2024/03/29 13:18:43;;;;;;;;;;;;;;;;;;5051802;28;19935;-67
2024/03/29 13:21:09;;;;;;;;;;;;;;;;;;5051814;28;20022;-67
2024/03/29 13:23:34;;;;;;;;;;;;;;;;;;5050756;28;19925;-67
2024/03/29 13:26:00;;;;;;;;;;;;;;;;;;5033558;28;20003;-67
2024/03/29 13:28:26;;;;;;;;;;;;;;;;;;5047294;28;19941;-67
2024/03/29 13:30:52;;;;;;;;;;;;;;;;;;5051239;28;19925;-67
2024/03/29 13:33:18;;;;;;;;;;;;;;;;;;5041821;28;19932;-67
2024/03/29 13:35:45;;;;;;;;;;;;;;;;;;5050039;28;19925;-67
2024/03/29 13:38:11;;;;;;;;;;;;;;;;;;5051631;28;19960;-67
2024/03/29 13:40:37;;;;;;;;;;;;;;;;;;5051198;28;20347;-67
2024/03/29 13:43:03;;;;;;;;;;;;;;;;;;5039203;28;20335;-67
2024/03/29 13:45:29;;;;;;;;;;;;;;;;;;5031418;28;20339;-67
2024/03/29 13:47:55;;;;;;;;;;;;;;;;;;5031718;28;19928;-67
2024/03/29 13:50:21;;;;;;;;;;;;;;;;;;5037031;28;20591;-67
2024/03/29 13:52:47;;;;;;;;;;;;;;;;;;5055664;28;20019;-67
2024/03/29 13:55:13;;;;;;;;;;;;;;;;;;5055427;28;19927;-67
2024/03/29 13:57:39;;;;;;;;;;;;;;;;;;5049889;28;19928;-67
2024/03/29 14:00:06;;;;;;;;;;;;;;;;;;5035552;28;20371;-68
2024/03/29 14:02:32;;;;;;;;;;;;;;;;;;5047378;28;19935;-68
2024/03/29 14:04:58;;;;;;;;;;;;;;;;;;5047187;28;19924;-68
2024/03/29 14:07:24;;;;;;;;;;;;;;;;;;5052924;28;19943;-68
2024/03/29 14:09:50;;;;;;;;;;;;;;;;;;5049669;28;20311;-68
2024/03/29 14:12:18;;;;;;;;;;;;;;;;;;5047313;28;19929;-68
2024/03/29 14:14:48;;;;;;;;;;;;;;;;;;5051960;28;19943;-68
2024/03/29 14:17:14;;;;;;;;;;;;;;;;;;5045331;28;19921;-68
2024/03/29 14:19:40;;;;;;;;;;;;;;;;;;5053136;28;19950;-68
2024/03/29 14:22:06;;;;;;;;;;;;;;;;;;5052511;28;19925;-68
2024/03/29 14:24:35;;;;;;;;;;;;;;;;;;5051276;28;19951;-68
2024/03/29 14:27:01;;;;;;;;;;;;;;;;;;5018807;28;19923;-68
2024/03/29 14:29:27;;;;;;;;;;;;;;;;;;5050892;28;19986;-68
2024/03/29 14:31:54;;;;;;;;;;;;;;;;;;5047611;28;19932;-68
2024/03/29 14:34:20;;;;;;;;;;;;;;;;;;5044403;28;19970;-68
2024/03/29 14:36:46;;;;;;;;;;;;;;;;;;5035789;28;19921;-68
2024/03/29 14:39:12;;;;;;;;;;;;;;;;;;5054309;28;20016;-68
2024/03/29 14:41:39;;;;;;;;;;;;;;;;;;5050711;28;19932;-68
2024/03/29 14:44:05;;;;;;;;;;;;;;;;;;5052030;28;21668;-68
2024/03/29 14:46:31;;;;;;;;;;;;;;;;;;5045788;28;19925;-68
2024/03/29 14:48:57;;;;;;;;;;;;;;;;;;5047524;28;19921;-68
2024/03/29 14:51:23;;;;;;;;;;;;;;;;;;5054176;28;19936;-68
2024/03/29 14:53:49;;;;;;;;;;;;;;;;;;5052989;28;19925;-67
2024/03/29 14:56:15;;;;;;;;;;;;;;;;;;5045872;28;20023;-67
2024/03/29 14:58:41;;;;;;;;;;;;;;;;;;5040574;28;20016;-67
2024/03/29 15:01:07;;;;;;;;;;;;;;;;;;5043123;28;19960;-67
2024/03/29 15:03:33;;;;;;;;;;;;;;;;;;5043815;28;20422;-67
2024/03/29 15:05:59;;;;;;;;;;;;;;;;;;5049691;28;19952;-67
2024/03/29 15:08:25;;;;;;;;;;;;;;;;;;5052907;28;20415;-68
2024/03/29 15:10:50;;;;;;;;;;;;;;;;;;5051088;28;19921;-67
2024/03/29 15:13:16;;;;;;;;;;;;;;;;;;5052390;28;19927;-67
2024/03/29 15:15:42;;;;;;;;;;;;;;;;;;5051363;28;19925;-67
2024/03/29 15:18:08;;;;;;;;;;;;;;;;;;5048206;28;19936;-68
2024/03/29 15:20:34;;;;;;;;;;;;;;;;;;5045494;28;19921;-68
2024/03/29 15:23:00;;;;;;;;;;;;;;;;;;5052005;28;19921;-67
2024/03/29 15:25:26;;;;;;;;;;;;;;;;;;5046176;28;19928;-67
2024/03/29 15:30:41;;;;;;;;;;;;;;;;;;5052109;28;19925;-65
2024/03/29 15:33:07;;;;;;;;;;;;;;;;;;5052417;28;19925;-64
2024/03/29 15:35:33;;;;;;;;;;;;;;;;;;5051623;28;19932;-64
2024/03/29 15:38:01;;;;;;;;;;;;;;;;;;5053030;28;19978;-64
2024/03/29 15:40:27;;;;;;;;;;;;;;;;;;5052839;28;19964;-64
2024/03/29 15:42:52;;;;;;;;;;;;;;;;;;5050242;28;20021;-64
2024/03/29 15:45:18;;;;;;;;;;;;;;;;;;5051168;28;20455;-64
2024/03/29 15:47:44;;;;;;;;;;;;;;;;;;5050888;28;19921;-64
2024/03/29 15:50:11;;;;;;;;;;;;;;;;;;5033425;28;20000;-64
2024/03/29 15:52:37;;;;;;;;;;;;;;;;;;5050923;28;19965;-64
2024/03/29 15:55:04;;;;;;;;;;;;;;;;;;5051587;28;19927;-64
2024/03/29 15:57:30;;;;;;;;;;;;;;;;;;5049283;28;20728;-64
2024/03/29 15:59:55;;;;;;;;;;;;;;;;;;5051312;28;19925;-64
2024/03/29 16:02:21;;;;;;;;;;;;;;;;;;5047960;28;19928;-63
2024/03/29 16:04:47;;;;;;;;;;;;;;;;;;5052581;28;19975;-63
2024/03/29 16:07:13;;;;;;;;;;;;;;;;;;5066807;28;20466;-63
2024/03/29 16:09:39;;;;;;;;;;;;;;;;;;5052643;28;19956;-63
2024/03/29 16:12:05;;;;;;;;;;;;;;;;;;5048074;28;19921;-63
2024/03/29 16:14:31;;;;;;;;;;;;;;;;;;5052609;28;19921;-63
2024/03/29 16:16:57;;;;;;;;;;;;;;;;;;5061318;28;19932;-63
2024/03/29 16:19:23;;;;;;;;;;;;;;;;;;5052738;28;19954;-63
2024/03/29 16:21:49;;;;;;;;;;;;;;;;;;5050387;28;19974;-64
2024/03/29 16:24:15;;;;;;;;;;;;;;;;;;5049830;28;19947;-63
2024/03/29 16:26:40;;;;;;;;;;;;;;;;;;5049645;28;20410;-63
2024/03/29 16:29:12;;;;;;;;;;;;;;;;;;5046567;28;19932;-63
2024/03/29 16:31:39;;;;;;;;;;;;;;;;;;5051375;28;20467;-64
2024/03/29 16:34:05;;;;;;;;;;;;;;;;;;5052630;28;20268;-64
2024/03/29 16:36:31;;;;;;;;;;;;;;;;;;5033250;28;20291;-63
2024/03/29 16:38:57;;;;;;;;;;;;;;;;;;5047366;28;19921;-64
2024/03/29 16:41:23;;;;;;;;;;;;;;;;;;5048366;28;20002;-63
2024/03/29 16:43:49;;;;;;;;;;;;;;;;;;5047874;28;20542;-66
2024/03/29 16:46:15;;;;;;;;;;;;;;;;;;5033394;28;20036;-66
2024/03/29 16:48:41;;;;;;;;;;;;;;;;;;5051090;28;20380;-64
2024/03/29 16:51:08;;;;;;;;;;;;;;;;;;5051185;28;20526;-64